Time;durP1;ratioP1;P1;durP2;ratioP2;P2;SDS_P1;SDS_P2;PMS_P1;PMS_P2;Temp;Humidity;BMP_temperature;BMP_pressure;BME280_temperature;BME280_humidity;BME280_pressure;Samples;Min_cycle;Max_cycle;Signal;HPM_P1;HPM_P2
2022/04/19 00:00:38;;;;;;;11.45;9.25;;;;;;;;;;5095147;28;20052;-69
2022/04/19 00:03:05;;;;;;;10.85;9.18;;;;;;;;;;5098783;28;20052;-68
2022/04/19 00:05:32;;;;;;;11.00;9.90;;;;;;;;;;5094905;28;20053;-69
2022/04/19 00:07:59;;;;;;;11.38;9.18;;;;;;;;;;5094296;28;20049;-69
2022/04/19 00:10:29;;;;;;;10.98;9.63;;;;;;;;;;5095296;28;20052;-68
2022/04/19 00:12:56;;;;;;;12.35;9.95;;;;;;;;;;5087834;28;20132;-69
2022/04/19 00:15:29;;;;;;;10.45;9.40;;;;;;;;;;5093563;28;20515;-69
2022/04/19 00:17:56;;;;;;;14.10;10.77;;;;;;;;;;5079551;28;20526;-68
2022/04/19 00:20:24;;;;;;;11.48;10.27;;;;;;;;;;5094884;28;20056;-69
2022/04/19 00:22:51;;;;;;;14.07;10.43;;;;;;;;;;5094874;28;20064;-69
2022/04/19 00:25:18;;;;;;;14.20;10.13;;;;;;;;;;5094608;28;20055;-69
2022/04/19 00:27:45;;;;;;;11.18;9.93;;;;;;;;;;5094235;28;20060;-69
2022/04/19 00:30:11;;;;;;;13.48;9.32;;;;;;;;;;5091452;28;20067;-68
2022/04/19 00:32:38;;;;;;;12.50;9.90;;;;;;;;;;5092171;28;20079;-69
2022/04/19 00:35:05;;;;;;;11.18;9.65;;;;;;;;;;5094847;28;20059;-69
2022/04/19 00:37:35;;;;;;;10.52;9.43;;;;;;;;;;5094172;28;20063;-69
2022/04/19 00:40:02;;;;;;;12.52;9.48;;;;;;;;;;5085332;28;20155;-69
2022/04/19 00:42:28;;;;;;;11.57;10.38;;;;;;;;;;5093244;28;20057;-69
2022/04/19 00:44:56;;;;;;;11.20;10.00;;;;;;;;;;5094242;28;20080;-69
2022/04/19 00:47:22;;;;;;;15.45;10.48;;;;;;;;;;5094422;28;20059;-69
2022/04/19 00:49:48;;;;;;;12.32;10.52;;;;;;;;;;5097961;28;20154;-69
2022/04/19 00:52:15;;;;;;;12.70;9.98;;;;;;;;;;5100299;27;20063;-69
2022/04/19 00:54:44;;;;;;;12.55;10.38;;;;;;;;;;5096762;28;20056;-69
2022/04/19 00:57:10;;;;;;;13.60;11.00;;;;;;;;;;5094465;28;20049;-69
2022/04/19 00:59:36;;;;;;;11.00;9.77;;;;;;;;;;5093578;28;20080;-69
2022/04/19 01:02:03;;;;;;;12.27;10.18;;;;;;;;;;5093082;28;20053;-69
2022/04/19 01:04:30;;;;;;;14.18;10.07;;;;;;;;;;5094492;28;20070;-69
2022/04/19 01:06:57;;;;;;;11.23;9.38;;;;;;;;;;5094831;28;20059;-70
2022/04/19 01:09:24;;;;;;;12.73;10.27;;;;;;;;;;5094706;28;20057;-69
2022/04/19 01:14:39;;;;;;;13.07;9.73;;;;;;;;;;5094487;28;20052;-69
2022/04/19 01:17:09;;;;;;;13.77;9.77;;;;;;;;;;5095156;28;20521;-68
2022/04/19 01:19:39;;;;;;;11.18;9.73;;;;;;;;;;5095762;28;20051;-69
2022/04/19 01:22:06;;;;;;;14.55;9.40;;;;;;;;;;5094542;28;20064;-70
2022/04/19 01:24:32;;;;;;;9.95;8.82;;;;;;;;;;5093930;28;20143;-68
2022/04/19 01:26:58;;;;;;;12.38;9.93;;;;;;;;;;5094196;28;20139;-69
2022/04/19 01:29:26;;;;;;;12.00;9.15;;;;;;;;;;5093235;28;20509;-69
2022/04/19 01:31:53;;;;;;;12.05;9.90;;;;;;;;;;5094071;28;20068;-69
2022/04/19 01:34:20;;;;;;;10.73;8.75;;;;;;;;;;5093801;28;20052;-68
2022/04/19 01:36:46;;;;;;;10.18;8.88;;;;;;;;;;5092720;28;20154;-69
2022/04/19 01:39:13;;;;;;;20.70;9.57;;;;;;;;;;5094495;28;20048;-69
2022/04/19 01:41:39;;;;;;;12.02;9.13;;;;;;;;;;5093659;28;20513;-69
2022/04/19 01:44:07;;;;;;;10.15;8.50;;;;;;;;;;5093695;28;20061;-69
2022/04/19 01:46:34;;;;;;;9.70;7.85;;;;;;;;;;5094428;28;20051;-68
2022/04/19 01:49:04;;;;;;;10.25;8.20;;;;;;;;;;5092983;28;20056;-68
2022/04/19 01:51:30;;;;;;;11.88;8.38;;;;;;;;;;5094061;28;20052;-70
2022/04/19 01:53:57;;;;;;;9.40;7.80;;;;;;;;;;5093395;28;20052;-69
2022/04/19 01:56:23;;;;;;;10.98;8.55;;;;;;;;;;5093662;28;20048;-69
2022/04/19 01:58:50;;;;;;;11.07;7.68;;;;;;;;;;5093083;28;20055;-69
2022/04/19 02:01:16;;;;;;;10.82;7.68;;;;;;;;;;5095035;28;20072;-69
2022/04/19 02:03:43;;;;;;;12.63;8.32;;;;;;;;;;5093544;28;20052;-68
2022/04/19 02:06:11;;;;;;;10.63;7.75;;;;;;;;;;5092768;28;20132;-69
2022/04/19 02:08:37;;;;;;;9.32;8.07;;;;;;;;;;5092592;28;20430;-69
2022/04/19 02:11:04;;;;;;;12.15;7.43;;;;;;;;;;5092868;28;20049;-70
2022/04/19 02:13:33;;;;;;;8.18;7.22;;;;;;;;;;5093780;28;20621;-69
2022/04/19 02:16:00;;;;;;;12.05;8.20;;;;;;;;;;5093254;28;20499;-69
2022/04/19 02:18:26;;;;;;;13.88;7.50;;;;;;;;;;5091012;27;20098;-69
2022/04/19 02:20:53;;;;;;;9.90;7.57;;;;;;;;;;5096641;27;20080;-69
2022/04/19 02:23:19;;;;;;;10.85;7.53;;;;;;;;;;5092704;28;20056;-69
2022/04/19 02:25:47;;;;;;;12.60;8.15;;;;;;;;;;5093279;28;20050;-69
2022/04/19 02:28:13;;;;;;;11.88;8.15;;;;;;;;;;5094289;28;20052;-70
2022/04/19 02:30:39;;;;;;;11.50;7.63;;;;;;;;;;5092744;28;20065;-69
2022/04/19 02:33:06;;;;;;;10.50;8.30;;;;;;;;;;5092776;28;20127;-69
2022/04/19 02:35:33;;;;;;;9.35;7.65;;;;;;;;;;5092359;28;20049;-69
2022/04/19 02:37:59;;;;;;;10.70;7.68;;;;;;;;;;5092369;28;20101;-70
2022/04/19 02:40:26;;;;;;;8.55;7.57;;;;;;;;;;5092828;28;20056;-69
2022/04/19 02:42:54;;;;;;;9.85;7.70;;;;;;;;;;5093118;28;20483;-70
2022/04/19 02:45:22;;;;;;;9.25;7.00;;;;;;;;;;5092669;28;20099;-69
2022/04/19 02:47:51;;;;;;;9.32;6.97;;;;;;;;;;5092688;28;20059;-69
2022/04/19 02:50:18;;;;;;;9.10;7.47;;;;;;;;;;5091989;28;20057;-70
2022/04/19 02:52:44;;;;;;;9.65;7.60;;;;;;;;;;5093028;28;20059;-69
2022/04/19 02:55:11;;;;;;;9.32;7.57;;;;;;;;;;5092325;28;20053;-69
2022/04/19 02:57:37;;;;;;;8.15;6.90;;;;;;;;;;5092525;28;20048;-69
2022/04/19 03:00:03;;;;;;;9.55;7.53;;;;;;;;;;5092576;28;20057;-69
2022/04/19 03:02:30;;;;;;;9.43;7.20;;;;;;;;;;5092755;28;20151;-70
2022/04/19 03:04:56;;;;;;;7.85;6.85;;;;;;;;;;5093062;28;20055;-68
2022/04/19 03:07:22;;;;;;;9.00;6.72;;;;;;;;;;5092168;28;20053;-69
2022/04/19 03:09:49;;;;;;;9.85;7.15;;;;;;;;;;5090916;28;20148;-68
2022/04/19 03:12:15;;;;;;;10.40;7.57;;;;;;;;;;5087624;28;20123;-69
2022/04/19 03:14:42;;;;;;;10.40;7.72;;;;;;;;;;5079904;28;20060;-69
2022/04/19 03:17:08;;;;;;;10.02;7.57;;;;;;;;;;5092695;28;20051;-69
2022/04/19 03:19:34;;;;;;;10.07;7.35;;;;;;;;;;5096671;28;20487;-69
2022/04/19 03:22:01;;;;;;;10.20;7.32;;;;;;;;;;5094549;27;20045;-68
2022/04/19 03:29:57;;;;;;;12.77;7.05;;;;;;;;;;5089835;28;20147;-70
2022/04/19 03:32:23;;;;;;;10.13;6.88;;;;;;;;;;5096266;28;20053;-69
2022/04/19 03:34:50;;;;;;;10.20;6.82;;;;;;;;;;5095217;28;20426;-68
2022/04/19 03:37:19;;;;;;;11.18;7.68;;;;;;;;;;5093979;28;20144;-68
2022/04/19 03:39:45;;;;;;;9.23;7.38;;;;;;;;;;5088545;28;20488;-69
2022/04/19 03:42:11;;;;;;;8.57;6.97;;;;;;;;;;5088933;28;20087;-69
2022/04/19 03:44:37;;;;;;;11.63;7.10;;;;;;;;;;5090357;28;20049;-68
2022/04/19 03:47:07;;;;;;;11.68;8.48;;;;;;;;;;5093101;28;20052;-69
2022/04/19 03:49:34;;;;;;;10.13;7.03;;;;;;;;;;5092286;28;20115;-69
2022/04/19 03:52:01;;;;;;;8.50;7.35;;;;;;;;;;5093809;28;20067;-70
2022/04/19 03:54:27;;;;;;;10.90;7.78;;;;;;;;;;5091442;28;20055;-69
2022/04/19 03:56:53;;;;;;;9.75;7.53;;;;;;;;;;5095059;28;20056;-70
2022/04/19 03:59:20;;;;;;;12.05;7.82;;;;;;;;;;5092574;28;20048;-69
2022/04/19 04:01:46;;;;;;;9.50;7.45;;;;;;;;;;5093299;28;20053;-69
2022/04/19 04:04:12;;;;;;;10.50;7.93;;;;;;;;;;5092678;28;20052;-69
2022/04/19 04:06:39;;;;;;;9.63;7.18;;;;;;;;;;5093984;28;20049;-69
2022/04/19 04:09:05;;;;;;;10.35;7.63;;;;;;;;;;5092473;28;20462;-69
2022/04/19 04:11:32;;;;;;;9.18;7.50;;;;;;;;;;5093963;28;20140;-69
2022/04/19 04:13:58;;;;;;;10.90;7.13;;;;;;;;;;5093519;28;20115;-68
2022/04/19 04:16:24;;;;;;;9.35;7.32;;;;;;;;;;5095755;28;20064;-68
2022/04/19 04:18:51;;;;;;;9.80;7.65;;;;;;;;;;5091760;28;20492;-69
2022/04/19 04:21:17;;;;;;;9.77;7.28;;;;;;;;;;5093610;28;20518;-70
2022/04/19 04:23:43;;;;;;;9.23;7.80;;;;;;;;;;5093826;28;20059;-68
2022/04/19 04:26:09;;;;;;;10.43;7.18;;;;;;;;;;5094825;28;20140;-69
2022/04/19 04:28:36;;;;;;;11.32;7.38;;;;;;;;;;5094203;28;20059;-68
2022/04/19 04:31:02;;;;;;;9.90;7.97;;;;;;;;;;5094059;28;20057;-70
2022/04/19 04:33:28;;;;;;;13.95;8.15;;;;;;;;;;5094455;28;20052;-69
2022/04/19 04:35:58;;;;;;;12.30;8.60;;;;;;;;;;5093979;28;20419;-70
2022/04/19 04:38:24;;;;;;;9.93;7.97;;;;;;;;;;5094664;28;20504;-70
2022/04/19 04:40:51;;;;;;;11.57;8.57;;;;;;;;;;5093334;28;20087;-69
2022/04/19 04:43:17;;;;;;;11.15;7.38;;;;;;;;;;5093252;28;20049;-69
2022/04/19 04:45:43;;;;;;;13.43;8.40;;;;;;;;;;5089853;28;20063;-70
2022/04/19 04:51:02;;;;;;;12.55;8.68;;;;;;;;;;5093827;28;20078;-69
2022/04/19 04:53:30;;;;;;;11.10;8.35;;;;;;;;;;5095650;28;20131;-69
2022/04/19 04:55:56;;;;;;;11.07;7.50;;;;;;;;;;5095038;28;20521;-69
2022/04/19 04:58:23;;;;;;;10.90;7.85;;;;;;;;;;5094219;28;20055;-69
2022/04/19 05:00:49;;;;;;;10.77;8.48;;;;;;;;;;5092948;28;20052;-69
2022/04/19 05:03:21;;;;;;;11.35;8.07;;;;;;;;;;5092432;28;20508;-69
2022/04/19 05:05:48;;;;;;;10.30;7.65;;;;;;;;;;5093858;28;20053;-70
2022/04/19 05:08:17;;;;;;;11.45;8.30;;;;;;;;;;5094170;28;20059;-68
2022/04/19 05:10:43;;;;;;;10.00;7.78;;;;;;;;;;5093188;28;20059;-69
2022/04/19 05:13:09;;;;;;;11.18;8.32;;;;;;;;;;5092814;28;20048;-69
2022/04/19 05:15:36;;;;;;;12.30;8.00;;;;;;;;;;5093088;28;20059;-70
2022/04/19 05:18:02;;;;;;;10.55;8.55;;;;;;;;;;5088714;28;20057;-69
2022/04/19 05:20:28;;;;;;;10.50;8.50;;;;;;;;;;5103097;27;20144;-69
2022/04/19 05:22:55;;;;;;;10.25;8.52;;;;;;;;;;5093674;28;20080;-70
2022/04/19 05:25:21;;;;;;;12.18;8.77;;;;;;;;;;5094118;28;20147;-69
2022/04/19 05:27:47;;;;;;;12.10;8.52;;;;;;;;;;5093121;28;20056;-70
2022/04/19 05:30:14;;;;;;;11.38;9.00;;;;;;;;;;5093307;28;20060;-68
2022/04/19 05:32:40;;;;;;;17.05;9.10;;;;;;;;;;5089462;28;20087;-69
2022/04/19 05:35:07;;;;;;;11.43;8.93;;;;;;;;;;5089204;28;20049;-69
2022/04/19 05:37:35;;;;;;;11.70;8.85;;;;;;;;;;5094428;28;20463;-69
2022/04/19 05:40:02;;;;;;;14.05;8.77;;;;;;;;;;5092679;28;20059;-68
2022/04/19 05:42:28;;;;;;;15.00;9.35;;;;;;;;;;5088657;28;20574;-70
2022/04/19 05:44:54;;;;;;;13.55;9.48;;;;;;;;;;5091812;28;20091;-69
2022/04/19 05:47:21;;;;;;;11.48;8.85;;;;;;;;;;5091527;27;20055;-69
2022/04/19 05:49:47;;;;;;;11.68;9.25;;;;;;;;;;5091981;28;20205;-69
2022/04/19 05:52:13;;;;;;;12.57;9.07;;;;;;;;;;5084268;28;20554;-68
2022/04/19 05:54:40;;;;;;;13.48;10.02;;;;;;;;;;5094372;27;20423;-68
2022/04/19 05:57:11;;;;;;;13.20;8.52;;;;;;;;;;5087123;28;20052;-67
2022/04/19 05:59:37;;;;;;;14.68;8.68;;;;;;;;;;5088060;28;20108;-69
2022/04/19 06:04:53;;;;;;;19.55;8.73;;;;;;;;;;5088558;28;20055;-69
2022/04/19 06:07:24;;;;;;;17.63;9.32;;;;;;;;;;5102317;27;20056;-68
2022/04/19 06:09:54;;;;;;;13.07;9.30;;;;;;;;;;5095024;28;20103;-69
2022/04/19 06:12:27;;;;;;;12.27;9.40;;;;;;;;;;5092438;28;20056;-68
2022/04/19 06:14:54;;;;;;;13.18;9.13;;;;;;;;;;5087562;28;20052;-66
2022/04/19 06:17:21;;;;;;;11.27;8.43;;;;;;;;;;5089791;28;20048;-68
2022/04/19 06:19:47;;;;;;;15.45;9.60;;;;;;;;;;5097136;28;20055;-68
2022/04/19 06:22:13;;;;;;;16.08;9.75;;;;;;;;;;5092295;28;20048;-69
2022/04/19 06:24:40;;;;;;;13.57;8.40;;;;;;;;;;5092941;28;20059;-68
2022/04/19 06:27:08;;;;;;;11.63;8.68;;;;;;;;;;5088626;28;20088;-69
2022/04/19 06:29:34;;;;;;;12.18;8.40;;;;;;;;;;5092895;28;20140;-69
2022/04/19 06:32:00;;;;;;;13.48;8.85;;;;;;;;;;5090993;28;21265;-69
2022/04/19 06:34:27;;;;;;;15.40;9.07;;;;;;;;;;5100400;28;20053;-69
2022/04/19 06:36:53;;;;;;;15.27;8.65;;;;;;;;;;5103670;27;20130;-70
2022/04/19 06:39:20;;;;;;;18.10;9.52;;;;;;;;;;5098714;27;20526;-70
2022/04/19 06:41:46;;;;;;;11.90;8.23;;;;;;;;;;5095261;28;20084;-69
2022/04/19 06:44:12;;;;;;;13.50;9.27;;;;;;;;;;5103343;28;20114;-70
2022/04/19 06:46:39;;;;;;;13.73;8.45;;;;;;;;;;5106617;27;20063;-66
2022/04/19 06:49:05;;;;;;;29.58;9.00;;;;;;;;;;5092220;28;20511;-67
2022/04/19 06:51:32;;;;;;;12.60;7.90;;;;;;;;;;5092999;28;20056;-66
2022/04/19 06:53:59;;;;;;;12.27;7.93;;;;;;;;;;5092132;28;20059;-68
2022/04/19 06:56:25;;;;;;;17.42;9.43;;;;;;;;;;5093349;28;20056;-68
2022/04/19 06:58:52;;;;;;;13.65;8.90;;;;;;;;;;5093379;28;20491;-67
2022/04/19 07:01:18;;;;;;;13.02;8.20;;;;;;;;;;5093336;28;20512;-69
2022/04/19 07:03:44;;;;;;;12.80;7.38;;;;;;;;;;5093316;28;20055;-68
2022/04/19 07:06:11;;;;;;;14.27;7.25;;;;;;;;;;5096360;28;20076;-69
2022/04/19 07:08:37;;;;;;;10.75;7.57;;;;;;;;;;5096448;28;20053;-69
2022/04/19 07:11:03;;;;;;;13.23;6.68;;;;;;;;;;5096784;28;20094;-67
2022/04/19 07:13:30;;;;;;;15.50;8.27;;;;;;;;;;5096897;28;20136;-66
2022/04/19 07:15:57;;;;;;;14.95;7.43;;;;;;;;;;5100168;28;20057;-67
2022/04/19 07:18:23;;;;;;;13.88;7.30;;;;;;;;;;5095195;28;20052;-67
2022/04/19 07:26:44;;;;;;;15.37;7.13;;;;;;;;;;5098266;28;20491;-68
2022/04/19 07:29:11;;;;;;;10.18;7.18;;;;;;;;;;5095334;28;20058;-69
2022/04/19 07:31:38;;;;;;;9.85;6.85;;;;;;;;;;5094405;28;20144;-68
2022/04/19 07:34:05;;;;;;;10.40;6.55;;;;;;;;;;5092739;28;20111;-69
2022/04/19 07:36:32;;;;;;;11.38;6.50;;;;;;;;;;5083928;28;20059;-70
2022/04/19 07:38:58;;;;;;;11.55;6.75;;;;;;;;;;5096276;28;20564;-68
2022/04/19 07:41:25;;;;;;;9.70;6.47;;;;;;;;;;5096746;28;20059;-67
2022/04/19 07:43:52;;;;;;;9.65;6.53;;;;;;;;;;5109591;27;20051;-70
2022/04/19 07:46:18;;;;;;;13.10;5.63;;;;;;;;;;5091845;28;20057;-67
2022/04/19 07:48:46;;;;;;;7.93;5.30;;;;;;;;;;5096110;28;20052;-68
2022/04/19 07:51:13;;;;;;;7.78;5.40;;;;;;;;;;5092742;28;20052;-69
2022/04/19 07:53:40;;;;;;;7.85;5.40;;;;;;;;;;5096168;28;20053;-69
2022/04/19 07:56:07;;;;;;;12.45;6.18;;;;;;;;;;5096386;28;20107;-68
2022/04/19 07:58:33;;;;;;;12.05;5.43;;;;;;;;;;5095909;28;20055;-69
2022/04/19 08:01:00;;;;;;;8.30;5.68;;;;;;;;;;5095839;28;20063;-68
2022/04/19 08:03:26;;;;;;;9.32;5.20;;;;;;;;;;5095901;28;20044;-69
2022/04/19 08:05:53;;;;;;;6.53;5.13;;;;;;;;;;5096002;28;20139;-68
2022/04/19 08:08:21;;;;;;;6.63;4.72;;;;;;;;;;5095305;28;20055;-69
2022/04/19 08:10:53;;;;;;;7.95;4.47;;;;;;;;;;5095522;28;20048;-69
2022/04/19 08:13:20;;;;;;;8.20;5.10;;;;;;;;;;5075377;28;20049;-69
2022/04/19 08:15:46;;;;;;;7.90;4.55;;;;;;;;;;5074233;28;20053;-69
2022/04/19 08:18:16;;;;;;;8.35;4.80;;;;;;;;;;5075629;28;20083;-69
2022/04/19 08:20:43;;;;;;;8.73;4.20;;;;;;;;;;5075480;28;20057;-67
2022/04/19 08:23:09;;;;;;;10.60;4.90;;;;;;;;;;5075222;28;20056;-69
2022/04/19 08:25:36;;;;;;;6.88;4.82;;;;;;;;;;5086077;28;20057;-69
2022/04/19 08:28:03;;;;;;;7.45;4.25;;;;;;;;;;5094483;28;20049;-66
2022/04/19 08:30:29;;;;;;;9.15;4.20;;;;;;;;;;5094849;28;20471;-68
2022/04/19 08:32:56;;;;;;;8.00;4.50;;;;;;;;;;5077857;28;20051;-68
2022/04/19 08:35:22;;;;;;;9.32;4.88;;;;;;;;;;5095154;28;20570;-69
2022/04/19 08:37:49;;;;;;;6.38;3.95;;;;;;;;;;5094632;28;20052;-68
2022/04/19 08:40:16;;;;;;;9.32;4.97;;;;;;;;;;5099323;28;20052;-67
2022/04/19 08:42:43;;;;;;;8.63;5.10;;;;;;;;;;5093506;28;20045;-66
2022/04/19 08:45:10;;;;;;;7.63;4.72;;;;;;;;;;5112667;27;20065;-68
2022/04/19 08:47:38;;;;;;;9.63;5.22;;;;;;;;;;5105365;27;20522;-68
2022/04/19 08:50:06;;;;;;;6.93;4.45;;;;;;;;;;5102663;28;20507;-68
2022/04/19 08:52:33;;;;;;;10.05;5.40;;;;;;;;;;5115491;27;20055;-68
2022/04/19 08:57:44;;;;;;;5.85;4.05;;;;;;;;;;5094845;28;20049;-68
2022/04/19 09:00:12;;;;;;;6.65;4.63;;;;;;;;;;5094827;28;20053;-66
2022/04/19 09:02:41;;;;;;;7.88;4.50;;;;;;;;;;5092674;28;20052;-67
2022/04/19 09:05:11;;;;;;;8.15;4.05;;;;;;;;;;5093872;28;20537;-66
2022/04/19 09:07:38;;;;;;;6.80;4.63;;;;;;;;;;5114158;28;20083;-66
2022/04/19 09:10:06;;;;;;;5.80;4.30;;;;;;;;;;5115148;27;20048;-68
2022/04/19 09:12:33;;;;;;;7.63;4.70;;;;;;;;;;5115066;27;20090;-67
2022/04/19 09:15:00;;;;;;;7.45;4.15;;;;;;;;;;5115094;28;20051;-68
2022/04/19 09:17:31;;;;;;;9.13;5.15;;;;;;;;;;5095796;27;20540;-68
2022/04/19 09:20:10;;;;;;;7.28;4.60;;;;;;;;;;5094639;28;20052;-67
2022/04/19 09:22:37;;;;;;;6.30;4.20;;;;;;;;;;5095104;28;20052;-69
2022/04/19 09:25:12;;;;;;;8.98;4.50;;;;;;;;;;5094526;28;20083;-67
2022/04/19 09:27:39;;;;;;;5.82;4.13;;;;;;;;;;5094653;28;20052;-67
2022/04/19 09:30:28;;;;;;;7.60;4.85;;;;;;;;;;5092578;28;20492;-67
2022/04/19 09:32:59;;;;;;;7.82;4.80;;;;;;;;;;5088071;28;20044;-67
2022/04/19 09:35:36;;;;;;;10.40;5.53;;;;;;;;;;5094474;28;20052;-68
2022/04/19 09:38:04;;;;;;;6.43;4.45;;;;;;;;;;5093619;28;20052;-67
2022/04/19 09:40:34;;;;;;;8.30;5.20;;;;;;;;;;5093845;28;20521;-68
2022/04/19 09:43:11;;;;;;;8.85;5.15;;;;;;;;;;5100853;28;20052;-67
2022/04/19 09:45:44;;;;;;;8.68;4.35;;;;;;;;;;5087856;28;20522;-67
2022/04/19 09:48:15;;;;;;;8.55;4.90;;;;;;;;;;5093835;28;20053;-67
2022/04/19 09:50:47;;;;;;;8.05;4.15;;;;;;;;;;5088736;28;20055;-67
2022/04/19 09:53:16;;;;;;;8.48;4.30;;;;;;;;;;5087425;28;20056;-68
2022/04/19 09:55:50;;;;;;;7.47;4.55;;;;;;;;;;5090385;28;20502;-67
2022/04/19 09:58:17;;;;;;;9.02;4.80;;;;;;;;;;5091657;28;20148;-68
2022/04/19 10:00:44;;;;;;;6.47;4.57;;;;;;;;;;5092464;28;20529;-67
2022/04/19 10:08:38;;;;;;;6.65;4.22;;;;;;;;;;5082951;28;44650;-67
2022/04/19 10:11:05;;;;;;;4.47;2.85;;;;;;;;;;5084088;28;20159;-67
2022/04/19 10:13:32;;;;;;;13.93;4.93;;;;;;;;;;5083572;28;20094;-67
2022/04/19 10:16:04;;;;;;;5.93;3.80;;;;;;;;;;5082679;28;20052;-67
2022/04/19 10:18:31;;;;;;;6.13;4.30;;;;;;;;;;5081561;28;20078;-68
2022/04/19 10:20:59;;;;;;;7.63;3.88;;;;;;;;;;5096073;28;20062;-68
2022/04/19 10:23:36;;;;;;;6.15;4.13;;;;;;;;;;5085192;28;20052;-67
2022/04/19 10:26:22;;;;;;;7.95;3.80;;;;;;;;;;5089690;28;20049;-68
2022/04/19 10:28:52;;;;;;;6.55;3.90;;;;;;;;;;5086512;28;20059;-66
2022/04/19 10:31:26;;;;;;;6.57;4.80;;;;;;;;;;5091379;28;20477;-67
2022/04/19 10:33:53;;;;;;;6.30;4.28;;;;;;;;;;5092152;28;20106;-66
2022/04/19 10:36:36;;;;;;;6.53;4.20;;;;;;;;;;5091320;28;20254;-67
2022/04/19 10:39:12;;;;;;;6.13;3.83;;;;;;;;;;5090175;28;20060;-67
2022/04/19 10:41:44;;;;;;;5.95;4.25;;;;;;;;;;5090191;28;20078;-67
2022/04/19 10:44:29;;;;;;;6.03;4.25;;;;;;;;;;5090506;28;20503;-67
2022/04/19 10:47:05;;;;;;;6.30;4.30;;;;;;;;;;5089204;28;20435;-67
2022/04/19 10:49:52;;;;;;;5.82;3.90;;;;;;;;;;5091718;28;20495;-67
2022/04/19 10:52:40;;;;;;;4.97;3.90;;;;;;;;;;5081290;28;20143;-68
2022/04/19 10:55:10;;;;;;;5.38;3.88;;;;;;;;;;5083189;28;20145;-68
2022/04/19 11:00:27;;;;;;;7.18;4.40;;;;;;;;;;5085634;28;20045;-67
2022/04/19 11:03:20;;;;;;;8.50;4.13;;;;;;;;;;5085415;28;20055;-68
2022/04/19 11:05:50;;;;;;;7.35;4.10;;;;;;;;;;5097159;27;20056;-68
2022/04/19 11:08:25;;;;;;;7.28;4.50;;;;;;;;;;5085414;28;20071;-68
2022/04/19 11:11:20;;;;;;;7.82;4.45;;;;;;;;;;5083935;28;20404;-67
2022/04/19 11:14:22;;;;;;;6.65;4.45;;;;;;;;;;5086406;28;20423;-69
2022/04/19 11:16:51;;;;;;;5.88;4.45;;;;;;;;;;5084272;28;20098;-68
2022/04/19 11:19:22;;;;;;;6.75;4.43;;;;;;;;;;5083457;28;20059;-68
2022/04/19 11:21:59;;;;;;;6.28;4.57;;;;;;;;;;5082831;28;20053;-68
2022/04/19 11:24:44;;;;;;;5.70;4.22;;;;;;;;;;5085869;28;20097;-68
2022/04/19 11:27:12;;;;;;;7.25;4.93;;;;;;;;;;5085493;28;20048;-69
2022/04/19 11:29:48;;;;;;;5.28;3.83;;;;;;;;;;5082931;28;20049;-69
2022/04/19 11:32:19;;;;;;;4.10;3.17;;;;;;;;;;5083547;28;20131;-69
2022/04/19 11:35:06;;;;;;;5.05;3.80;;;;;;;;;;5083823;28;20056;-71
2022/04/19 11:37:32;;;;;;;6.88;4.05;;;;;;;;;;5089028;27;20070;-69
2022/04/19 11:48:26;;;;;;;6.03;4.25;;;;;;;;;;5083559;28;20139;-69
2022/04/19 11:51:07;;;;;;;7.57;4.13;;;;;;;;;;5082529;28;20048;-69
2022/04/19 11:53:34;;;;;;;8.07;4.95;;;;;;;;;;5085496;28;20059;-68
2022/04/19 11:56:01;;;;;;;7.25;4.45;;;;;;;;;;5087414;28;20049;-69
2022/04/19 11:58:28;;;;;;;6.47;4.22;;;;;;;;;;5086786;28;20136;-68
2022/04/19 12:00:58;;;;;;;7.43;4.65;;;;;;;;;;5087304;28;20053;-69
2022/04/19 12:03:26;;;;;;;9.23;4.85;;;;;;;;;;5086502;28;20064;-67
2022/04/19 12:06:09;;;;;;;6.55;4.53;;;;;;;;;;5087213;28;20525;-67
2022/04/19 12:08:41;;;;;;;8.95;4.95;;;;;;;;;;5094311;28;20061;-67
2022/04/19 12:11:08;;;;;;;9.77;4.40;;;;;;;;;;5093807;28;20049;-65
2022/04/19 12:13:35;;;;;;;6.32;4.60;;;;;;;;;;5093146;28;20491;-67
2022/04/19 12:16:03;;;;;;;6.85;4.80;;;;;;;;;;5094496;28;20061;-68
2022/04/19 12:18:31;;;;;;;7.15;5.25;;;;;;;;;;5094659;28;20618;-68
2022/04/19 12:20:57;;;;;;;12.05;8.13;;;;;;;;;;5093424;28;20110;-68
2022/04/19 12:23:23;;;;;;;11.13;6.35;;;;;;;;;;5097216;28;20049;-68
2022/04/19 12:26:02;;;;;;;9.00;6.55;;;;;;;;;;5094779;28;20045;-68
2022/04/19 12:28:34;;;;;;;13.15;6.65;;;;;;;;;;5094469;28;20048;-68
2022/04/19 12:31:00;;;;;;;13.23;8.13;;;;;;;;;;5092750;28;20207;-67
2022/04/19 12:33:26;;;;;;;10.55;7.07;;;;;;;;;;5091999;28;20049;-68
2022/04/19 12:35:53;;;;;;;17.13;8.52;;;;;;;;;;5094484;28;20493;-69
2022/04/19 12:38:27;;;;;;;14.38;6.70;;;;;;;;;;5093216;28;20055;-68
2022/04/19 12:40:53;;;;;;;10.15;6.82;;;;;;;;;;5093429;28;20143;-69
2022/04/19 12:43:20;;;;;;;9.50;6.45;;;;;;;;;;5093929;28;20052;-67
2022/04/19 12:45:46;;;;;;;9.35;7.32;;;;;;;;;;5092625;28;20055;-68
2022/04/19 12:48:19;;;;;;;9.50;6.95;;;;;;;;;;5094283;28;20451;-67
2022/04/19 12:50:46;;;;;;;12.85;6.68;;;;;;;;;;5093955;28;20048;-68
2022/04/19 12:53:22;;;;;;;9.70;6.43;;;;;;;;;;5093325;28;20057;-68
2022/04/19 12:55:48;;;;;;;12.57;7.45;;;;;;;;;;5093922;28;20143;-69
2022/04/19 12:58:15;;;;;;;22.95;18.10;;;;;;;;;;5093811;28;20537;-66
2022/04/19 13:00:42;;;;;;;9.52;6.47;;;;;;;;;;5092757;28;20056;-68
2022/04/19 13:03:08;;;;;;;7.35;5.35;;;;;;;;;;5092333;28;20056;-68
2022/04/19 13:13:49;;;;;;;29.90;23.27;;;;;;;;;;5085780;28;20053;-68
2022/04/19 13:16:17;;;;;;;33.17;22.80;;;;;;;;;;5084413;28;20063;-67
2022/04/19 13:18:43;;;;;;;94.68;75.22;;;;;;;;;;5091345;28;20049;-70
2022/04/19 13:21:09;;;;;;;47.97;37.08;;;;;;;;;;5089939;28;20059;-70
2022/04/19 13:23:36;;;;;;;35.25;28.00;;;;;;;;;;5085454;28;20053;-69
2022/04/19 13:26:02;;;;;;;20.85;15.02;;;;;;;;;;5087008;28;20052;-70
2022/04/19 13:28:29;;;;;;;9.90;8.27;;;;;;;;;;5085077;28;20063;-69
2022/04/19 13:30:55;;;;;;;9.10;6.43;;;;;;;;;;5086195;27;20065;-69
2022/04/19 13:33:22;;;;;;;7.55;4.38;;;;;;;;;;5086243;28;20142;-68
2022/04/19 13:35:48;;;;;;;5.90;4.28;;;;;;;;;;5085046;28;20048;-71
2022/04/19 13:38:24;;;;;;;5.63;3.30;;;;;;;;;;5088556;28;20044;-68
2022/04/19 13:40:53;;;;;;;5.65;3.10;;;;;;;;;;5093385;28;20057;-68
2022/04/19 13:43:19;;;;;;;6.70;3.80;;;;;;;;;;5087213;28;20048;-67
2022/04/19 13:45:49;;;;;;;3.75;3.20;;;;;;;;;;5088293;28;21229;-69
2022/04/19 13:48:15;;;;;;;6.53;3.40;;;;;;;;;;5092871;28;20496;-68
2022/04/19 13:50:41;;;;;;;2.95;2.55;;;;;;;;;;5092914;28;20060;-70
2022/04/19 13:53:08;;;;;;;3.38;2.50;;;;;;;;;;5093519;28;20051;-70
2022/04/19 13:55:35;;;;;;;6.00;2.60;;;;;;;;;;5090177;28;21217;-71
2022/04/19 13:58:02;;;;;;;2.50;2.25;;;;;;;;;;5086335;27;20048;-66
2022/04/19 14:00:28;;;;;;;7.72;2.88;;;;;;;;;;5085229;28;20059;-68
2022/04/19 14:02:54;;;;;;;3.53;2.45;;;;;;;;;;5086177;28;20063;-68
2022/04/19 14:05:21;;;;;;;7.68;2.67;;;;;;;;;;5087253;28;20056;-67
2022/04/19 14:07:47;;;;;;;5.78;2.42;;;;;;;;;;5086884;28;20059;-69
2022/04/19 14:10:13;;;;;;;2.95;2.65;;;;;;;;;;5088368;28;20053;-70
2022/04/19 14:12:44;;;;;;;3.78;2.65;;;;;;;;;;5087231;28;20512;-70
2022/04/19 14:15:10;;;;;;;3.22;2.42;;;;;;;;;;5085292;28;20056;-70
2022/04/19 14:17:37;;;;;;;5.07;2.70;;;;;;;;;;5090233;28;20060;-69
2022/04/19 14:20:04;;;;;;;4.15;2.45;;;;;;;;;;5091742;28;20052;-70
2022/04/19 14:22:33;;;;;;;3.70;2.88;;;;;;;;;;5083602;28;20053;-69
2022/04/19 14:24:59;;;;;;;4.53;2.60;;;;;;;;;;5084467;28;20044;-70
2022/04/19 14:27:25;;;;;;;4.07;2.60;;;;;;;;;;5091054;28;20055;-68
2022/04/19 14:35:22;;;;;;;4.30;3.80;;;;;;;;;;5086710;28;20044;-70
2022/04/19 14:37:48;;;;;;;3.53;3.20;;;;;;;;;;5087500;27;20063;-68
2022/04/19 14:40:15;;;;;;;4.38;3.03;;;;;;;;;;5095767;27;20143;-69
2022/04/19 14:42:44;;;;;;;6.15;3.42;;;;;;;;;;5087127;28;20151;-68
2022/04/19 14:45:13;;;;;;;6.03;4.07;;;;;;;;;;5089491;28;20051;-69
2022/04/19 14:47:39;;;;;;;9.18;3.40;;;;;;;;;;5115522;27;20053;-71
2022/04/19 14:50:06;;;;;;;4.25;3.47;;;;;;;;;;5087161;28;20054;-68
2022/04/19 14:52:33;;;;;;;4.13;3.05;;;;;;;;;;5090442;27;20076;-70
2022/04/19 14:55:00;;;;;;;4.22;3.20;;;;;;;;;;5087009;28;20484;-69
2022/04/19 14:57:27;;;;;;;4.80;2.97;;;;;;;;;;5086995;28;20057;-69
2022/04/19 14:59:53;;;;;;;4.68;2.60;;;;;;;;;;5092279;28;20510;-69
2022/04/19 15:02:21;;;;;;;2.88;2.40;;;;;;;;;;5092817;28;20051;-69
2022/04/19 15:04:47;;;;;;;3.33;1.90;;;;;;;;;;5086822;28;20180;-68
2022/04/19 15:07:13;;;;;;;2.15;1.92;;;;;;;;;;5088043;28;20060;-68
2022/04/19 15:09:40;;;;;;;8.02;1.90;;;;;;;;;;5086192;28;20053;-69
2022/04/19 15:12:08;;;;;;;3.67;1.90;;;;;;;;;;5089697;28;20055;-68
2022/04/19 15:14:38;;;;;;;2.05;1.85;;;;;;;;;;5082836;28;20459;-68
2022/04/19 15:17:05;;;;;;;2.58;1.60;;;;;;;;;;5088034;28;20738;-69
2022/04/19 15:19:32;;;;;;;2.53;1.95;;;;;;;;;;5094631;28;20052;-68
2022/04/19 15:21:58;;;;;;;2.88;2.03;;;;;;;;;;5090767;28;20055;-69
2022/04/19 15:24:25;;;;;;;2.45;1.75;;;;;;;;;;5088074;28;20084;-69
2022/04/19 15:26:52;;;;;;;2.35;1.50;;;;;;;;;;5093127;28;20139;-68
2022/04/19 15:29:19;;;;;;;4.53;2.40;;;;;;;;;;5095347;28;20052;-69
2022/04/19 15:31:47;;;;;;;2.97;1.80;;;;;;;;;;5094061;28;20068;-69
2022/04/19 15:34:13;;;;;;;2.00;1.80;;;;;;;;;;5093629;28;20125;-69